createdAt,value
2023-05-09T07:06:16.398Z,17.26
2023-05-09T07:11:38.362Z,15.69
2023-05-09T07:17:18.153Z,15.80
2023-05-09T07:22:42.538Z,15.77
2023-05-09T07:28:04.846Z,19.65
2023-05-09T07:33:26.890Z,21.29
2023-05-09T07:38:51.154Z,21.47
2023-05-09T07:44:13.765Z,18.89
2023-05-09T07:49:36.391Z,17.64
2023-05-09T07:54:58.470Z,16.26
2023-05-09T08:00:24.572Z,14.94
2023-05-09T08:05:46.391Z,15.16
2023-05-09T08:11:08.782Z,14.84
2023-05-09T08:16:33.327Z,14.93
2023-05-09T08:21:56.133Z,14.75
2023-05-09T08:27:18.274Z,15.23
2023-05-09T08:32:39.926Z,15.72
2023-05-09T08:38:07.157Z,15.80
2023-05-09T08:43:29.943Z,17.09
2023-05-09T08:48:53.283Z,15.89
2023-05-09T08:54:16.389Z,15.82
2023-05-09T08:59:41.145Z,15.96
2023-05-09T09:05:03.491Z,15.77
2023-05-09T09:10:29.591Z,15.75
2023-05-09T09:15:54.242Z,15.47
2023-05-09T09:21:17.799Z,15.36
2023-05-09T09:26:48.127Z,15.36
2023-05-09T09:32:10.224Z,14.84
2023-05-09T09:37:35.172Z,14.33
2023-05-09T09:42:56.989Z,14.89
2023-05-09T09:48:19.061Z,15.73
2023-05-09T09:53:43.074Z,15.98
2023-05-09T09:59:15.195Z,15.76
2023-05-09T10:04:44.036Z,16.10
2023-05-09T10:10:07.061Z,16.76
2023-05-09T10:15:38.438Z,17.17
2023-05-09T10:21:11.314Z,17.74
2023-05-09T10:26:35.499Z,16.91
2023-05-09T10:32:00.773Z,16.89
2023-05-09T10:37:22.762Z,17.43
2023-05-09T10:42:46.197Z,16.96
2023-05-09T10:48:09.668Z,16.96
2023-05-09T10:53:45.674Z,16.99
2023-05-09T10:59:27.754Z,16.94
2023-05-09T11:04:49.698Z,16.49
2023-05-09T11:10:19.092Z,17.27
2023-05-09T11:16:00.134Z,17.69
2023-05-09T11:21:23.724Z,18.17
2023-05-09T11:26:49.035Z,17.62
2023-05-09T11:32:16.533Z,17.45
2023-05-09T11:37:48.678Z,16.15
2023-05-09T11:43:11.331Z,15.60
2023-05-09T11:48:39.726Z,16.37
2023-05-09T11:54:01.404Z,16.38
2023-05-09T11:59:25.244Z,16.25
2023-05-09T12:04:47.202Z,16.06
2023-05-09T12:10:10.618Z,17.63
2023-05-09T12:15:43.480Z,17.12
2023-05-09T12:21:07.719Z,16.21
2023-05-09T12:26:30.217Z,16.07
2023-05-09T12:31:56.198Z,15.88
2023-05-09T12:37:19.816Z,16.72
2023-05-09T12:42:45.589Z,16.35
2023-05-09T12:48:09.769Z,15.57
2023-05-09T12:53:32.109Z,17.00
2023-05-09T12:58:55.477Z,16.80
2023-05-09T13:04:21.451Z,16.58
2023-05-09T13:10:01.441Z,16.95
2023-05-09T13:15:24.659Z,16.75
2023-05-09T13:20:49.303Z,16.12
2023-05-09T13:26:11.375Z,16.58
2023-05-09T13:31:34.266Z,16.92
2023-05-09T13:36:56.803Z,16.70
2023-05-09T13:42:19.306Z,16.89
2023-05-09T13:47:41.372Z,16.07
2023-05-09T13:53:03.801Z,15.91
2023-05-09T13:58:25.363Z,15.41
2023-05-09T14:03:49.559Z,15.54
2023-05-09T14:09:15.761Z,15.40
2023-05-09T14:14:37.868Z,15.43
2023-05-09T14:19:59.771Z,14.64
2023-05-09T14:25:23.279Z,14.90
2023-05-09T14:30:45.248Z,14.78
2023-05-09T14:36:08.131Z,14.35
2023-05-09T14:41:29.952Z,14.50
2023-05-09T14:46:52.135Z,14.60
2023-05-09T14:52:14.412Z,14.45
2023-05-09T14:57:36.763Z,14.45
2023-05-09T15:02:58.887Z,14.78
2023-05-09T15:08:21.306Z,15.15
2023-05-09T15:13:43.438Z,14.79
2023-05-09T15:19:05.889Z,14.52
2023-05-09T15:24:27.903Z,14.17
2023-05-09T15:29:49.793Z,14.33
2023-05-09T15:35:12.043Z,14.41
2023-05-09T15:40:34.480Z,14.71
2023-05-09T15:45:56.664Z,14.20
2023-05-09T15:51:18.919Z,13.98
2023-05-09T15:56:41.171Z,13.60
2023-05-09T16:02:03.258Z,13.37
2023-05-09T16:07:25.714Z,13.08
2023-05-09T16:12:48.003Z,13.00
2023-05-09T16:18:10.237Z,12.83
2023-05-09T16:23:32.226Z,12.79
2023-05-09T16:28:54.114Z,12.59
2023-05-09T16:34:16.146Z,12.39
2023-05-09T16:39:38.258Z,12.18
2023-05-09T16:45:00.646Z,12.12
2023-05-09T16:50:22.428Z,11.95
2023-05-09T16:55:44.603Z,11.61
2023-05-09T17:01:07.286Z,11.27
2023-05-09T17:06:29.343Z,10.99
2023-05-09T17:11:51.282Z,10.83
2023-05-09T17:17:14.116Z,10.71
2023-05-09T17:22:37.125Z,10.37
2023-05-09T17:27:59.426Z,10.32
2023-05-09T17:33:21.866Z,10.14
2023-05-09T17:38:44.187Z,9.99
2023-05-09T17:44:06.550Z,9.84
2023-05-09T17:49:30.039Z,9.70
2023-05-09T17:54:52.091Z,9.51
2023-05-09T18:00:15.706Z,9.32
2023-05-09T18:05:38.506Z,9.23
2023-05-09T18:11:00.387Z,9.12
2023-05-09T18:16:22.699Z,8.96
2023-05-09T18:34:04.507Z,8.67
2023-05-09T18:39:26.769Z,8.41
2023-05-09T18:44:49.008Z,8.14
2023-05-09T18:50:12.009Z,7.82
2023-05-09T18:55:34.287Z,7.40
2023-05-09T19:00:55.888Z,7.20
2023-05-09T19:06:18.146Z,7.04
2023-05-09T19:11:40.095Z,6.76
2023-05-09T19:17:02.319Z,6.45
2023-05-09T19:22:24.514Z,6.23
2023-05-09T19:27:47.160Z,6.21
2023-05-09T19:33:09.089Z,6.29
2023-05-09T19:38:31.816Z,6.15
2023-05-09T19:43:54.173Z,6.10
2023-05-09T19:49:18.004Z,6.00
2023-05-09T19:54:40.394Z,5.92
2023-05-09T20:00:02.668Z,5.87
2023-05-09T20:05:42.137Z,5.77
2023-05-09T20:11:09.353Z,5.87
2023-05-09T20:16:33.351Z,5.89
2023-05-09T20:21:55.330Z,5.70
2023-05-09T20:27:17.998Z,5.69
2023-05-09T20:32:40.380Z,5.73
2023-05-09T20:38:04.238Z,5.77
2023-05-09T20:43:27.170Z,5.78
2023-05-09T20:48:49.679Z,5.85
2023-05-09T20:54:12.354Z,5.93
2023-05-09T20:59:34.677Z,5.89
2023-05-09T21:04:57.306Z,5.56
2023-05-09T21:10:19.559Z,5.76
2023-05-09T21:15:42.340Z,6.02
2023-05-09T21:21:08.832Z,6.10
2023-05-09T21:26:30.901Z,6.19
2023-05-09T21:31:52.803Z,6.13
2023-05-09T21:37:15.719Z,6.18
2023-05-09T21:42:40.565Z,6.17
2023-05-09T21:48:03.249Z,6.24
2023-05-09T21:53:25.982Z,6.16
2023-05-09T21:58:47.829Z,6.23
2023-05-09T22:04:09.902Z,6.23
2023-05-09T22:09:32.143Z,6.40
2023-05-09T22:14:56.725Z,6.48
2023-05-09T22:20:19.353Z,6.55
2023-05-09T22:25:41.258Z,6.39
2023-05-09T22:31:05.824Z,6.25
2023-05-09T22:36:27.409Z,6.34
2023-05-09T22:41:50.708Z,6.39
2023-05-09T22:47:13.024Z,6.42
2023-05-09T22:52:37.502Z,6.43
2023-05-09T22:57:59.549Z,6.39
2023-05-09T23:03:23.041Z,6.41
2023-05-09T23:08:45.788Z,6.37
2023-05-09T23:14:08.026Z,6.28
2023-05-09T23:19:55.038Z,6.24
2023-05-09T23:25:19.350Z,6.22
2023-05-09T23:30:42.407Z,6.29
2023-05-09T23:36:07.757Z,6.38
2023-05-09T23:41:30.165Z,6.39
2023-05-09T23:46:51.984Z,6.26
2023-05-09T23:52:15.405Z,6.25
2023-05-09T23:57:38.106Z,6.08
